createdAt,value
2023-05-17T00:01:45.246Z,100976.36
2023-05-17T00:04:13.888Z,100975.80
2023-05-17T00:06:42.004Z,100969.77
2023-05-17T00:09:10.140Z,100976.23
2023-05-17T00:11:38.103Z,100975.52
2023-05-17T00:14:06.201Z,100979.74
2023-05-17T00:16:34.153Z,100977.96
2023-05-17T00:19:02.225Z,100981.49
2023-05-17T00:21:31.367Z,100983.48
2023-05-17T00:23:59.332Z,100978.19
2023-05-17T00:26:27.296Z,100978.66
2023-05-17T00:28:55.558Z,100971.95
2023-05-17T00:31:23.551Z,100974.30
2023-05-17T00:33:51.615Z,100975.20
2023-05-17T00:36:19.485Z,100973.60
2023-05-17T00:38:47.424Z,100970.58
2023-05-17T00:41:15.499Z,100974.30
2023-05-17T00:43:43.432Z,100976.95
2023-05-17T00:46:11.405Z,100978.84
2023-05-17T00:48:39.823Z,100985.02
2023-05-17T00:51:08.475Z,100987.64
2023-05-17T00:53:37.428Z,100988.90
2023-05-17T00:56:06.264Z,100992.42
2023-05-17T00:58:34.378Z,100992.13
2023-05-17T01:01:03.134Z,100993.80
2023-05-17T01:03:31.130Z,100996.41
2023-05-17T01:05:59.557Z,100997.90
2023-05-17T01:08:29.968Z,101003.88
2023-05-17T01:11:06.618Z,101004.31
2023-05-17T01:13:48.927Z,101010.69
2023-05-17T01:16:27.902Z,101015.12
2023-05-17T01:19:08.140Z,101018.44
2023-05-17T01:21:54.681Z,101020.42
2023-05-17T01:24:28.479Z,101020.73
2023-05-17T01:26:59.441Z,101019.45
2023-05-17T01:29:30.284Z,101018.73
2023-05-17T01:32:00.128Z,101017.32
2023-05-17T01:34:29.466Z,101014.29
2023-05-17T01:36:58.288Z,101015.52
2023-05-17T01:39:26.782Z,101020.08
2023-05-17T01:42:11.374Z,101019.78
2023-05-17T01:45:12.854Z,101018.99
2023-05-17T01:47:59.977Z,101018.84
2023-05-17T01:50:31.231Z,101018.20
2023-05-17T01:53:08.323Z,101025.62
2023-05-17T01:55:50.003Z,101020.30
2023-05-17T01:58:21.940Z,101027.42
2023-05-17T02:00:53.562Z,101026.56
2023-05-17T02:03:22.048Z,101032.03
2023-05-17T02:05:53.772Z,101027.47
2023-05-17T02:08:21.778Z,101025.34
2023-05-17T02:10:49.749Z,101029.88
2023-05-17T02:13:17.643Z,101038.71
2023-05-17T02:15:45.632Z,101038.89
2023-05-17T02:18:13.766Z,101038.17
2023-05-17T02:20:41.892Z,101032.63
2023-05-17T02:23:09.920Z,101035.42
2023-05-17T02:25:37.845Z,101036.77
2023-05-17T02:28:06.990Z,101039.83
2023-05-17T02:30:40.935Z,101042.45
2023-05-17T02:33:09.326Z,101044.19
2023-05-17T02:35:37.644Z,101057.11
2023-05-17T02:38:05.713Z,101066.80
2023-05-17T02:40:33.751Z,101073.84
2023-05-17T02:43:03.966Z,101079.13
2023-05-17T02:45:32.044Z,101083.65
2023-05-17T02:48:00.069Z,101090.69
2023-05-17T02:50:28.001Z,101089.19
2023-05-17T02:52:56.102Z,101082.84
2023-05-17T02:55:23.992Z,101071.86
2023-05-17T02:57:52.179Z,101066.24
2023-05-17T03:00:20.662Z,101064.12
2023-05-17T03:02:48.831Z,101065.56
2023-05-17T03:05:16.896Z,101061.64
2023-05-17T03:07:49.511Z,101066.92
2023-05-17T03:10:17.773Z,101074.16
2023-05-17T03:12:46.747Z,101081.95
2023-05-17T03:15:18.344Z,101093.97
2023-05-17T03:17:46.886Z,101093.71
2023-05-17T03:20:17.456Z,101087.98
2023-05-17T03:22:46.857Z,101083.23
2023-05-17T03:25:15.543Z,101075.02
2023-05-17T03:27:43.614Z,101080.35
2023-05-17T03:30:12.892Z,101081.83
2023-05-17T03:32:41.210Z,101089.73
2023-05-17T03:35:09.624Z,101090.42
2023-05-17T03:37:38.856Z,101093.38
2023-05-17T03:40:08.043Z,101090.95
2023-05-17T03:42:37.114Z,101102.41
2023-05-17T03:45:06.677Z,101106.22
2023-05-17T03:47:34.872Z,101108.19
2023-05-17T03:50:03.504Z,101114.67
2023-05-17T03:52:31.809Z,101122.67
2023-05-17T03:55:00.387Z,101126.35
2023-05-17T03:57:28.740Z,101128.79
2023-05-17T03:59:57.873Z,101134.55
2023-05-17T04:02:26.568Z,101136.64
2023-05-17T04:04:54.735Z,101136.89
2023-05-17T04:07:24.608Z,101136.92
2023-05-17T04:09:52.616Z,101129.45
2023-05-17T04:12:21.127Z,101127.45
2023-05-17T04:14:49.121Z,101130.52
2023-05-17T04:17:17.189Z,101127.95
2023-05-17T04:19:46.198Z,101129.25
2023-05-17T04:22:15.468Z,101130.05
2023-05-17T04:24:43.565Z,101130.40
2023-05-17T04:27:11.626Z,101130.72
2023-05-17T04:29:41.049Z,101135.71
2023-05-17T04:32:09.280Z,101135.46
2023-05-17T04:34:37.618Z,101136.74
2023-05-17T04:37:06.237Z,101135.18
2023-05-17T04:39:36.737Z,101135.95
2023-05-17T04:42:04.800Z,101138.02
2023-05-17T04:44:39.499Z,101146.77
2023-05-17T04:47:08.261Z,101148.86
2023-05-17T04:49:37.564Z,101149.16
2023-05-17T04:52:06.340Z,101151.69
2023-05-17T04:54:35.771Z,101150.86
2023-05-17T04:57:03.931Z,101151.61
2023-05-17T04:59:52.088Z,101158.08
2023-05-17T05:02:21.008Z,101155.16
2023-05-17T05:04:49.486Z,101156.76
2023-05-17T05:07:18.023Z,101155.99
2023-05-17T05:09:46.182Z,101156.32
2023-05-17T05:12:14.728Z,101164.36
2023-05-17T05:14:43.240Z,101171.13
2023-05-17T05:17:11.308Z,101169.95
2023-05-17T05:19:39.672Z,101169.09
2023-05-17T05:22:08.442Z,101171.87
2023-05-17T05:24:38.273Z,101169.23
2023-05-17T05:27:07.213Z,101170.86
2023-05-17T05:29:36.062Z,101167.91
2023-05-17T05:32:04.362Z,101164.61
2023-05-17T05:34:34.977Z,101168.93
2023-05-17T05:37:06.013Z,101172.90
2023-05-17T05:39:34.193Z,101177.34
2023-05-17T05:42:04.439Z,101183.15
2023-05-17T05:44:32.618Z,101192.06
2023-05-17T05:47:01.433Z,101202.06
2023-05-17T05:49:29.517Z,101198.84
2023-05-17T05:51:57.659Z,101199.93
2023-05-17T05:54:26.796Z,101198.81
2023-05-17T05:56:55.370Z,101201.88
2023-05-17T05:59:23.527Z,101199.04
2023-05-17T06:01:51.896Z,101192.44
2023-05-17T06:04:22.735Z,101198.36
2023-05-17T06:06:58.050Z,101204.02
2023-05-17T06:09:26.263Z,101206.90
2023-05-17T06:11:54.194Z,101207.17
2023-05-17T06:14:22.236Z,101203.09
2023-05-17T06:16:51.031Z,101203.47
2023-05-17T06:19:20.650Z,101204.92
2023-05-17T06:21:49.039Z,101201.42
2023-05-17T06:24:17.229Z,101198.11
2023-05-17T06:26:45.242Z,101193.56
2023-05-17T06:29:13.334Z,101194.02
2023-05-17T06:31:41.449Z,101195.97
2023-05-17T06:34:09.657Z,101201.29
2023-05-17T06:36:38.674Z,101200.35
2023-05-17T06:39:07.236Z,101199.23
2023-05-17T06:41:35.437Z,101201.65
2023-05-17T06:44:03.586Z,101206.91
2023-05-17T06:46:31.557Z,101210.45
2023-05-17T06:48:59.773Z,101221.60
2023-05-17T06:51:27.772Z,101222.73
2023-05-17T06:53:55.770Z,101229.63
2023-05-17T06:56:23.868Z,101234.33
2023-05-17T06:58:51.958Z,101236.22
2023-05-17T07:01:20.596Z,101244.11
2023-05-17T07:03:48.617Z,101245.72
2023-05-17T07:06:17.067Z,101249.03
2023-05-17T07:08:45.184Z,101249.66
2023-05-17T07:11:13.223Z,101248.88
2023-05-17T07:13:41.080Z,101248.36
2023-05-17T07:16:09.834Z,101242.89
2023-05-17T07:18:38.442Z,101246.84
2023-05-17T07:21:07.707Z,101252.61
2023-05-17T07:23:35.722Z,101254.83
2023-05-17T07:26:04.016Z,101253.84
2023-05-17T07:28:32.489Z,101255.92
2023-05-17T07:31:03.305Z,101264.35
2023-05-17T07:33:31.963Z,101267.47
2023-05-17T07:35:59.968Z,101265.63
2023-05-17T07:38:28.029Z,101266.22
2023-05-17T07:40:56.063Z,101271.94
2023-05-17T07:43:24.812Z,101275.14
2023-05-17T07:45:52.745Z,101279.67
2023-05-17T07:48:20.952Z,101278.34
2023-05-17T07:50:50.149Z,101280.23
2023-05-17T07:53:18.177Z,101286.64
2023-05-17T07:55:49.521Z,101290.32
2023-05-17T07:58:17.633Z,101292.17
2023-05-17T08:00:46.350Z,101302.72
2023-05-17T08:03:15.803Z,101303.48
2023-05-17T08:05:45.589Z,101297.63
2023-05-17T08:08:18.355Z,101291.27
2023-05-17T08:10:46.304Z,101287.96
2023-05-17T08:13:14.308Z,101286.13
2023-05-17T08:15:42.261Z,101292.84
2023-05-17T08:18:11.268Z,101285.45
2023-05-17T08:20:39.806Z,101282.48
2023-05-17T08:23:10.744Z,101283.53
2023-05-17T08:25:38.705Z,101280.77
2023-05-17T08:28:06.670Z,101282.80
2023-05-17T08:30:34.736Z,101285.73
2023-05-17T08:33:03.631Z,101293.45
2023-05-17T08:35:32.398Z,101296.30
2023-05-17T08:38:01.061Z,101300.38
2023-05-17T08:40:29.796Z,101300.89
2023-05-17T08:42:59.238Z,101295.43
2023-05-17T08:45:31.908Z,101298.69
2023-05-17T08:48:01.980Z,101306.79
2023-05-17T08:50:34.829Z,101301.86
2023-05-17T08:53:03.590Z,101309.39
2023-05-17T08:55:33.643Z,101308.52
2023-05-17T08:58:04.160Z,101308.94
2023-05-17T09:00:34.274Z,101317.05
2023-05-17T09:03:02.403Z,101317.27
2023-05-17T09:05:31.698Z,101314.18
2023-05-17T09:07:59.859Z,101316.52
2023-05-17T09:10:27.957Z,101308.42
2023-05-17T09:12:56.733Z,101303.02
2023-05-17T09:15:27.456Z,101302.05
2023-05-17T09:17:57.137Z,101305.20
2023-05-17T09:20:37.006Z,101304.70
2023-05-17T09:23:13.718Z,101304.35
2023-05-17T09:25:49.296Z,101300.74
2023-05-17T09:28:20.713Z,101299.92
2023-05-17T09:30:49.831Z,101304.66
2023-05-17T09:33:22.140Z,101309.35
2023-05-17T09:35:50.137Z,101305.78
2023-05-17T09:38:18.279Z,101304.39
2023-05-17T09:40:48.516Z,101309.92
2023-05-17T09:43:23.432Z,101316.53
2023-05-17T09:45:59.341Z,101319.05
2023-05-17T09:48:28.645Z,101315.39
2023-05-17T09:50:56.996Z,101318.20
2023-05-17T09:53:32.351Z,101318.79
2023-05-17T09:56:03.110Z,101311.65
2023-05-17T09:58:37.354Z,101311.16
2023-05-17T10:01:07.845Z,101311.56
2023-05-17T10:03:38.168Z,101312.34
2023-05-17T10:06:09.839Z,101313.59
2023-05-17T10:08:47.502Z,101318.06
2023-05-17T10:11:16.059Z,101324.61
2023-05-17T10:14:10.302Z,101321.27
2023-05-17T10:16:40.119Z,101320.73
2023-05-17T10:19:11.930Z,101317.16
2023-05-17T10:21:43.275Z,101307.36
2023-05-17T10:24:12.550Z,101312.23
2023-05-17T10:26:42.463Z,101313.63
2023-05-17T10:29:11.320Z,101316.16
2023-05-17T10:31:43.694Z,101316.63
2023-05-17T10:34:14.532Z,101320.89
2023-05-17T10:36:44.995Z,101323.05
2023-05-17T10:39:13.409Z,101325.14
2023-05-17T10:41:43.957Z,101327.80
2023-05-17T10:44:17.173Z,101320.72
2023-05-17T10:46:56.592Z,101322.52
2023-05-17T10:49:27.062Z,101328.36
2023-05-17T10:51:58.547Z,101333.70
2023-05-17T10:54:36.842Z,101323.93
2023-05-17T10:57:08.810Z,101334.02
2023-05-17T10:59:57.778Z,101335.13
2023-05-17T11:02:29.167Z,101333.27
2023-05-17T11:04:58.097Z,101339.23
2023-05-17T11:07:32.626Z,101345.82
2023-05-17T11:10:04.163Z,101348.61
2023-05-17T11:12:43.507Z,101348.02
2023-05-17T11:15:18.304Z,101353.79
2023-05-17T11:17:54.118Z,101348.92
2023-05-17T11:20:26.314Z,101352.36
2023-05-17T11:23:21.542Z,101354.55
2023-05-17T11:25:51.465Z,101356.58
2023-05-17T11:28:22.483Z,101360.41
2023-05-17T11:30:54.356Z,101358.84
2023-05-17T11:33:45.841Z,101358.92
2023-05-17T11:36:23.126Z,101352.05
2023-05-17T11:39:13.767Z,101352.63
2023-05-17T11:41:56.702Z,101348.05
2023-05-17T11:44:33.203Z,101350.60
2023-05-17T11:47:07.145Z,101352.13
2023-05-17T11:49:39.463Z,101358.80
2023-05-17T11:52:08.507Z,101354.84
2023-05-17T11:54:39.872Z,101352.66
2023-05-17T11:57:09.922Z,101352.61
2023-05-17T11:59:43.214Z,101351.63
2023-05-17T12:02:26.155Z,101354.62
2023-05-17T12:04:54.780Z,101359.25
2023-05-17T12:07:24.018Z,101356.17
2023-05-17T12:09:53.399Z,101357.18
2023-05-17T12:12:24.041Z,101354.26
2023-05-17T12:14:52.540Z,101356.66
2023-05-17T12:17:31.766Z,101356.38
2023-05-17T12:20:10.374Z,101368.21
2023-05-17T12:22:57.378Z,101368.42
2023-05-17T12:25:28.361Z,101376.94
2023-05-17T12:28:14.924Z,101373.00
2023-05-17T12:30:43.682Z,101374.77
2023-05-17T12:33:11.866Z,101369.98
2023-05-17T12:35:41.077Z,101370.52
2023-05-17T12:38:10.619Z,101367.91
2023-05-17T12:40:43.259Z,101367.23
2023-05-17T12:43:12.898Z,101367.40
2023-05-17T12:45:43.642Z,101370.27
2023-05-17T12:48:11.614Z,101371.36
2023-05-17T12:50:46.282Z,101366.41
2023-05-17T12:53:14.279Z,101372.52
2023-05-17T12:55:42.202Z,101363.50
2023-05-17T12:58:10.090Z,101370.52
2023-05-17T13:00:38.075Z,101364.59
2023-05-17T13:03:12.204Z,101367.00
2023-05-17T13:05:43.834Z,101362.80
2023-05-17T13:08:22.015Z,101358.61
2023-05-17T13:10:50.156Z,101356.02
2023-05-17T13:13:20.568Z,101350.59
2023-05-17T13:15:48.665Z,101356.06
2023-05-17T13:18:16.919Z,101351.05
2023-05-17T13:20:45.341Z,101357.10
2023-05-17T13:23:13.221Z,101353.28
2023-05-17T13:25:41.176Z,101350.13
2023-05-17T13:28:09.269Z,101356.81
2023-05-17T13:30:39.356Z,101354.91
2023-05-17T13:33:08.546Z,101358.09
2023-05-17T13:35:39.049Z,101354.34
2023-05-17T13:38:07.001Z,101353.30
2023-05-17T13:40:34.938Z,101360.82
2023-05-17T13:43:03.725Z,101371.27
2023-05-17T13:45:31.879Z,101375.79
2023-05-17T13:47:59.898Z,101372.63
2023-05-17T13:50:28.601Z,101374.30
2023-05-17T13:52:56.980Z,101373.23
2023-05-17T13:55:25.669Z,101375.39
2023-05-17T13:57:54.401Z,101377.67
2023-05-17T14:00:22.876Z,101375.02
2023-05-17T14:02:50.874Z,101373.14
2023-05-17T14:05:19.316Z,101378.05
2023-05-17T14:07:47.391Z,101383.52
2023-05-17T14:10:15.352Z,101386.96
2023-05-17T14:12:44.025Z,101387.89
2023-05-17T14:15:11.960Z,101383.15
2023-05-17T14:17:40.100Z,101380.52
2023-05-17T14:20:09.644Z,101382.23
2023-05-17T14:22:37.754Z,101385.81
2023-05-17T14:25:07.165Z,101383.94
2023-05-17T14:27:34.999Z,101389.94
2023-05-17T14:30:04.399Z,101393.57
2023-05-17T14:32:32.523Z,101403.38
2023-05-17T14:35:00.473Z,101404.11
2023-05-17T14:37:28.508Z,101404.08
2023-05-17T14:40:05.939Z,101410.88
2023-05-17T14:42:35.139Z,101413.08
2023-05-17T14:45:03.148Z,101418.80
2023-05-17T14:47:31.086Z,101431.43
2023-05-17T14:49:59.093Z,101432.13
2023-05-17T14:52:27.069Z,101433.85
2023-05-17T14:54:55.026Z,101437.67
2023-05-17T14:57:23.939Z,101446.30
2023-05-17T14:59:52.877Z,101444.42
2023-05-17T15:02:21.397Z,101438.98
2023-05-17T15:04:49.558Z,101439.90
2023-05-17T15:07:18.170Z,101443.99
2023-05-17T15:09:46.351Z,101449.73
2023-05-17T15:12:14.324Z,101452.13
2023-05-17T15:14:42.281Z,101449.89
2023-05-17T15:17:10.288Z,101445.11
2023-05-17T15:19:38.333Z,101451.28
2023-05-17T15:22:06.756Z,101457.83
2023-05-17T15:24:35.246Z,101455.80
2023-05-17T15:27:03.210Z,101455.05
2023-05-17T15:29:31.832Z,101460.35
2023-05-17T15:32:00.593Z,101462.16
2023-05-17T15:34:29.626Z,101464.62
2023-05-17T15:36:58.690Z,101463.63
2023-05-17T15:39:28.602Z,101464.71
2023-05-17T15:41:56.594Z,101471.90
2023-05-17T15:44:24.693Z,101472.72
2023-05-17T15:46:52.603Z,101468.63
2023-05-17T15:49:20.619Z,101475.98
2023-05-17T15:51:48.761Z,101475.70
2023-05-17T15:54:16.884Z,101475.73
2023-05-17T15:56:44.822Z,101475.36
2023-05-17T15:59:12.816Z,101474.73
2023-05-17T16:01:42.558Z,101483.26
2023-05-17T16:04:10.490Z,101482.02
2023-05-17T16:06:38.614Z,101488.56
2023-05-17T16:09:07.108Z,101490.08
2023-05-17T16:11:35.173Z,101492.09
2023-05-17T16:14:03.145Z,101498.83
2023-05-17T16:16:31.161Z,101500.47
2023-05-17T16:18:59.286Z,101499.70
2023-05-17T16:21:27.771Z,101502.86
2023-05-17T16:23:56.312Z,101505.26
2023-05-17T16:26:24.596Z,101511.78
2023-05-17T16:28:52.742Z,101509.59
2023-05-17T16:31:20.915Z,101512.42
2023-05-17T16:33:49.294Z,101516.01
2023-05-17T16:36:18.301Z,101519.00
2023-05-17T16:38:46.311Z,101519.63
2023-05-17T16:41:14.196Z,101524.63
2023-05-17T16:43:42.184Z,101525.30
2023-05-17T16:46:10.354Z,101526.66
2023-05-17T16:48:38.231Z,101526.38
2023-05-17T16:51:06.261Z,101529.06
2023-05-17T16:53:34.283Z,101532.70
2023-05-17T16:56:02.288Z,101537.50
2023-05-17T16:58:30.335Z,101535.92
2023-05-17T17:00:58.360Z,101538.71
2023-05-17T17:03:26.346Z,101538.60
2023-05-17T17:05:54.893Z,101538.21
2023-05-17T17:08:22.935Z,101538.28
2023-05-17T17:10:50.993Z,101539.29
2023-05-17T17:13:18.993Z,101543.23
2023-05-17T17:15:47.470Z,101545.21
2023-05-17T17:18:18.052Z,101544.95
2023-05-17T17:20:46.885Z,101545.45
2023-05-17T17:23:15.029Z,101546.16
2023-05-17T17:25:43.059Z,101550.84
2023-05-17T17:28:10.966Z,101551.45
2023-05-17T17:30:39.018Z,101557.17
2023-05-17T17:33:07.203Z,101559.89
2023-05-17T17:35:35.172Z,101560.55
2023-05-17T17:38:03.344Z,101565.20
2023-05-17T17:40:31.826Z,101564.09
2023-05-17T17:43:00.422Z,101562.13
2023-05-17T17:45:28.441Z,101563.28
2023-05-17T17:47:56.507Z,101562.91
2023-05-17T17:50:24.458Z,101564.88
2023-05-17T17:52:52.479Z,101566.60
2023-05-17T17:55:20.752Z,101565.86
2023-05-17T17:57:48.805Z,101569.21
2023-05-17T18:00:16.977Z,101564.18
2023-05-17T18:02:45.010Z,101567.23
2023-05-17T18:05:13.069Z,101563.51
2023-05-17T18:07:41.455Z,101564.63
2023-05-17T18:10:10.601Z,101561.14
2023-05-17T18:12:38.613Z,101558.02
2023-05-17T18:15:07.094Z,101563.52
2023-05-17T18:17:35.272Z,101568.41
2023-05-17T18:20:05.157Z,101572.80
2023-05-17T18:22:34.125Z,101573.55
2023-05-17T18:25:02.177Z,101574.80
2023-05-17T18:27:31.167Z,101578.80
2023-05-17T18:29:59.151Z,101581.45
2023-05-17T18:32:27.271Z,101581.96
2023-05-17T18:34:55.301Z,101583.00
2023-05-17T18:37:23.384Z,101590.33
2023-05-17T18:39:52.033Z,101588.52
2023-05-17T18:42:25.428Z,101596.59
2023-05-17T18:44:53.532Z,101601.66
2023-05-17T18:47:23.831Z,101609.47
2023-05-17T18:49:52.343Z,101615.95
2023-05-17T18:52:21.118Z,101627.77
2023-05-17T18:54:49.219Z,101632.39
2023-05-17T18:57:18.815Z,101638.69
2023-05-17T18:59:47.832Z,101639.02
2023-05-17T19:02:15.865Z,101646.63
2023-05-17T19:04:46.782Z,101648.53
2023-05-17T19:07:16.451Z,101653.48
2023-05-17T19:09:44.443Z,101657.02
2023-05-17T19:12:12.557Z,101662.34
2023-05-17T19:14:41.504Z,101667.08
2023-05-17T19:17:10.704Z,101674.09
2023-05-17T19:19:39.189Z,101676.30
2023-05-17T19:22:07.471Z,101680.45
2023-05-17T19:24:36.110Z,101683.57
2023-05-17T19:27:05.650Z,101685.83
2023-05-17T19:29:35.369Z,101691.98
2023-05-17T19:32:05.361Z,101691.13
2023-05-17T19:34:33.810Z,101697.27
2023-05-17T19:37:01.817Z,101701.10
2023-05-17T19:39:30.206Z,101705.94
2023-05-17T19:41:58.323Z,101713.55
2023-05-17T19:44:27.682Z,101715.60
2023-05-17T19:46:55.803Z,101721.58
2023-05-17T19:49:27.490Z,101728.04
2023-05-17T19:52:00.940Z,101732.42
2023-05-17T19:54:31.363Z,101731.15
2023-05-17T19:57:00.269Z,101731.84
2023-05-17T19:59:28.500Z,101731.08
2023-05-17T20:01:57.042Z,101735.19
2023-05-17T20:04:28.782Z,101741.93
2023-05-17T20:06:57.065Z,101747.10
2023-05-17T20:09:30.488Z,101750.63
2023-05-17T20:11:58.728Z,101750.27
2023-05-17T20:14:27.913Z,101751.15
2023-05-17T20:16:56.510Z,101756.59
2023-05-17T20:19:24.876Z,101753.88
2023-05-17T20:21:53.484Z,101752.56
2023-05-17T20:24:23.553Z,101751.06
2023-05-17T20:26:51.516Z,101753.86
2023-05-17T20:29:19.561Z,101756.23
2023-05-17T20:31:47.554Z,101761.43
2023-05-17T20:34:15.587Z,101763.71
2023-05-17T20:36:43.697Z,101764.86
2023-05-17T20:39:12.384Z,101769.10
2023-05-17T20:41:42.035Z,101775.55
2023-05-17T20:44:09.994Z,101780.41
2023-05-17T20:46:39.186Z,101778.70
2023-05-17T20:49:10.208Z,101783.92
2023-05-17T20:51:38.352Z,101785.23
2023-05-17T20:54:09.377Z,101779.15
2023-05-17T20:56:37.353Z,101782.21
2023-05-17T20:59:06.216Z,101784.70
2023-05-17T21:01:34.993Z,101793.14
2023-05-17T21:04:03.107Z,101798.13
2023-05-17T21:06:32.744Z,101801.30
2023-05-17T21:09:02.935Z,101807.55
2023-05-17T21:11:31.633Z,101809.41
2023-05-17T21:13:59.957Z,101808.51
2023-05-17T21:16:29.617Z,101806.30
2023-05-17T21:18:58.090Z,101799.14
2023-05-17T21:21:26.043Z,101801.55
2023-05-17T21:23:54.084Z,101805.72
2023-05-17T21:26:23.813Z,101806.41
2023-05-17T21:28:51.817Z,101809.73
2023-05-17T21:31:21.356Z,101811.52
2023-05-17T21:33:49.844Z,101812.45
2023-05-17T21:36:17.899Z,101811.41
2023-05-17T21:38:46.890Z,101817.35
2023-05-17T21:41:14.863Z,101821.09
2023-05-17T21:43:44.554Z,101821.74
2023-05-17T21:46:14.057Z,101832.38
2023-05-17T21:48:42.076Z,101831.56
2023-05-17T21:51:10.169Z,101839.27
2023-05-17T21:53:38.142Z,101835.77
2023-05-17T21:56:08.566Z,101835.44
2023-05-17T21:58:36.490Z,101835.25
2023-05-17T22:01:05.438Z,101833.69
2023-05-17T22:03:33.706Z,101839.42
2023-05-17T22:06:02.291Z,101829.80
2023-05-17T22:08:30.126Z,101827.27
2023-05-17T22:10:58.110Z,101828.83
2023-05-17T22:13:27.227Z,101829.70
2023-05-17T22:15:57.999Z,101833.52
2023-05-17T22:18:27.603Z,101834.82
2023-05-17T22:20:59.845Z,101834.23
2023-05-17T22:23:28.068Z,101831.20
2023-05-17T22:25:57.852Z,101829.63
2023-05-17T22:28:26.844Z,101832.70
2023-05-17T22:30:55.690Z,101834.03
2023-05-17T22:33:23.716Z,101830.17
2023-05-17T22:35:53.837Z,101823.66
2023-05-17T22:38:25.123Z,101826.48
2023-05-17T22:40:53.061Z,101831.23
2023-05-17T22:43:26.509Z,101832.27
2023-05-17T22:46:00.345Z,101829.80
2023-05-17T22:48:30.952Z,101837.13
2023-05-17T22:51:03.581Z,101842.77
2023-05-17T22:53:32.367Z,101844.27
2023-05-17T22:56:00.291Z,101848.23
2023-05-17T22:58:28.289Z,101847.65
2023-05-17T23:00:56.400Z,101848.44
2023-05-17T23:03:24.367Z,101849.66
2023-05-17T23:06:02.750Z,101848.98
2023-05-17T23:08:32.857Z,101852.42
2023-05-17T23:11:02.352Z,101849.75
2023-05-17T23:13:30.429Z,101849.65
2023-05-17T23:15:58.468Z,101849.39
2023-05-17T23:18:28.261Z,101847.55
2023-05-17T23:20:56.739Z,101848.10
2023-05-17T23:23:24.741Z,101851.08
2023-05-17T23:25:57.004Z,101856.52
2023-05-17T23:28:25.395Z,101863.02
2023-05-17T23:30:55.211Z,101863.38
2023-05-17T23:33:23.205Z,101865.13
2023-05-17T23:35:51.971Z,101870.77
2023-05-17T23:38:19.898Z,101870.16
2023-05-17T23:40:47.979Z,101872.10
2023-05-17T23:43:15.984Z,101872.50
2023-05-17T23:45:43.957Z,101876.02
2023-05-17T23:48:11.925Z,101875.55
2023-05-17T23:50:39.907Z,101872.80
2023-05-17T23:53:10.182Z,101873.27
2023-05-17T23:55:39.047Z,101875.42
2023-05-17T23:58:07.005Z,101875.94
